EST,Max TemperatureF,Mean TemperatureF,Min TemperatureF,Max Dew PointF,MeanDew PointF,Min DewpointF,Max Humidity, Mean Humidity, Min Humidity, Max Sea Level PressureIn, Mean Sea Level PressureIn, Min Sea Level PressureIn, Max VisibilityMiles, Mean VisibilityMiles, Min VisibilityMiles, Max Wind SpeedMPH, Mean Wind SpeedMPH, Max Gust SpeedMPH,PrecipitationIn, CloudCover, Events, WindDirDegrees
2012-11-1,51,45,39,36,31,23,87,63,34,29.86,29.82,29.79,10,10,9,17,10,26,0.02,5,Rain,257
2012-11-2,48,42,36,31,28,25,66,55,46,30.10,29.98,29.85,10,10,10,14,7,21,0.00,5,,308
2012-11-3,43,36,30,37,32,27,88,75,60,30.21,30.14,30.10,10,10,10,7,3,,0.01,7,Rain,287
2012-11-4,44,36,27,32,30,26,93,74,59,30.20,30.17,30.14,10,10,7,9,4,,0.00,5,Fog,325
2012-11-5,46,36,25,28,26,22,94,75,45,30.22,30.18,30.13,10,8,3,7,1,,0.00,0,Fog,63
2012-11-6,49,38,28,29,26,22,80,65,43,30.14,30.04,29.94,10,10,10,7,3,,0.00,2,,61
2012-11-7,53,42,32,34,29,28,84,64,39,30.13,30.00,29.91,10,10,10,12,4,,0.00,3,,360
2012-11-8,51,38,24,34,28,23,93,78,46,30.26,30.21,30.14,10,7,0,6,0,,0.00,0,Fog,215
2012-11-9,59,44,28,38,33,25,88,63,39,30.27,30.19,30.13,10,10,10,12,4,,0.00,2,,170
2012-11-10,69,57,45,46,40,35,66,53,37,30.20,30.16,30.10,10,10,10,20,8,,0.00,3,,169
2012-11-11,67,58,49,43,36,34,60,44,31,30.25,30.17,30.06,10,10,10,28,12,36,0.00,4,,166
2012-11-12,62,45,28,54,41,24,93,81,52,30.40,30.13,30.00,10,8,2,23,15,41,0.00,6,Rain,225
2012-11-13,39,32,24,26,23,21,90,72,50,30.55,30.49,30.41,10,10,10,8,5,,0.00,1,,249
2012-11-14,41,32,23,27,25,20,91,74,56,30.59,30.50,30.42,10,10,10,12,4,,0.00,4,,52
2012-11-15,46,34,23,30,26,19,92,75,51,30.41,30.38,30.34,10,9,6,6,1,,0.00,3,Fog,351
2012-11-16,49,36,23,35,28,20,94,77,49,30.51,30.46,30.39,10,8,3,6,1,,0.00,0,,5
2012-11-17,56,40,25,32,27,23,94,72,31,30.60,30.54,30.50,10,8,1,12,2,,0.00,0,,63
2012-11-18,59,43,27,31,27,23,92,64,25,30.51,30.46,30.40,10,10,10,8,1,,0.00,1,,79
2012-11-19,58,43,28,37,31,24,85,69,41,30.40,30.32,30.21,10,10,10,4,0,,0.00,5,,140
2012-11-20,57,48,39,40,36,33,81,64,45,30.18,30.14,30.08,10,10,10,9,3,,0.00,8,,80
2012-11-21,61,49,37,41,38,34,95,71,42,30.27,30.21,30.15,10,10,6,4,0,,0.00,1,Fog,133
2012-11-22,63,47,31,42,36,30,94,70,43,30.23,30.15,29.99,10,8,3,16,3,24,0.00,2,Fog,179
2012-11-23,56,43,30,48,33,18,88,65,54,30.19,30.01,29.91,10,10,10,25,16,36,0.00,7,Rain,249
2012-11-24,32,30,27,23,21,19,71,67,62,30.24,30.19,30.14,10,10,10,13,10,,0.00,8,Snow,261
2012-11-25,45,36,28,29,23,19,71,60,43,30.12,30.00,29.91,10,10,10,17,9,23,0.00,6,,206
2012-11-26,48,38,28,30,28,24,90,63,41,30.27,30.17,30.05,10,10,10,10,3,,0.00,5,,355
2012-11-27,36,29,22,29,23,18,83,70,53,30.38,30.33,30.25,10,10,10,13,8,,0.00,5,,345
2012-11-28,42,31,20,24,21,17,89,69,43,30.43,30.38,30.33,10,10,7,12,3,,0.00,1,,248
2012-11-29,47,34,21,27,24,18,88,67,44,30.41,30.34,30.26,10,10,10,13,3,,0.00,3,,169
2012-11-30,55,42,30,39,32,25,81,60,40,30.25,30.22,30.14,10,10,10,15,5,,0.00,6,,191